Fort Lauderdale Executive Airport
KFXE : now visible

Airfield :











YOU CAN JOIN US ON...

 
LOGIN :

Register | Disclaimer

   EN    FR    IT 

 









Legend :    VFR   Marginal VFR   IFR   Intensive IFR   Very Intensive IFR
Visi :
Ceiling :
>= 8 km
>= 3000ft
5 to 8 km
1000 to 3000 ft
1500m to 5 km
500 to 1000 ft
800 to 1500m
200 to 500 ft
< 800m
< 200 ft
Symbols :   Thunderstorms  Fog  Heavy snow  Heavy precipitations  Wind > 20 kt






- Airport Elevation : 13 ft


KFXE - Fort Lauderdale Executive

CURRENT METAR :
  • 171353Z 31008G15KT 10SM OVC012 14/11 A2992 RMK AO2 SLP135 T01390106 $

EXPIRED METARs :
  • 171253Z 33009KT 10SM OVC010 13/11 A2991 RMK AO2 SLP132 T01330106 $
  • 171153Z COR 34010KT 10SM OVC010 14/11 A2990 RMK AO2 SLP127 T01390111 10156 20133 53015 $

TAF KFXE
Valid from the 17 at 12:00 until the 18 at 12:00 UTC


171121Z 1712/1812 32010KT P6SM BKN010
FM171500 30010KT P6SM FEW035 SCT050
FM180000 VRB04KT P6SM FEW050



MET'MAP, your aeronautical weather chart ! - Copyright ORBIFLY December 2007 - Disclaimer

ORBIFLY MET'MAP TEAM :

Programming & Development : Alexandra Zaïnal
Concept & Development : Baudouin d'Aumeries
Co-Development & Prog : Marc-Olivier Méhu
Technical & hardware support : Manuel Goepfert

Contact : metmap@orbifly.com




SOURCES & CREDITS :

   NOAA       Earth
Advisory